sensor_id;sensor_type;location;lat;lon;timestamp;temperature;humidity
5130;DHT22;2583;50.946;6.954;2023-07-20T00:02:03;19.10;97.60
5130;DHT22;2583;50.946;6.954;2023-07-20T00:04:32;19.10;97.50
5130;DHT22;2583;50.946;6.954;2023-07-20T00:06:59;19.10;97.40
5130;DHT22;2583;50.946;6.954;2023-07-20T00:09:28;19.20;97.40
5130;DHT22;2583;50.946;6.954;2023-07-20T00:11:55;19.10;97.40
5130;DHT22;2583;50.946;6.954;2023-07-20T00:14:22;19.10;97.20
5130;DHT22;2583;50.946;6.954;2023-07-20T00:16:55;19.10;97.40
5130;DHT22;2583;50.946;6.954;2023-07-20T00:19:24;19.10;97.60
5130;DHT22;2583;50.946;6.954;2023-07-20T00:21:52;19.10;97.40
5130;DHT22;2583;50.946;6.954;2023-07-20T00:24:19;19.10;97.20
5130;DHT22;2583;50.946;6.954;2023-07-20T00:26:46;19.10;97.20
5130;DHT22;2583;50.946;6.954;2023-07-20T00:29:13;19.20;97.20
5130;DHT22;2583;50.946;6.954;2023-07-20T00:31:40;19.20;97.00
5130;DHT22;2583;50.946;6.954;2023-07-20T00:34:06;19.20;96.70
5130;DHT22;2583;50.946;6.954;2023-07-20T00:36:33;19.20;96.70
5130;DHT22;2583;50.946;6.954;2023-07-20T00:39:00;19.20;96.90
5130;DHT22;2583;50.946;6.954;2023-07-20T00:41:27;19.20;97.40
5130;DHT22;2583;50.946;6.954;2023-07-20T00:43:56;19.10;97.80
5130;DHT22;2583;50.946;6.954;2023-07-20T00:46:23;19.00;98.80
5130;DHT22;2583;50.946;6.954;2023-07-20T00:48:53;19.00;99.40
5130;DHT22;2583;50.946;6.954;2023-07-20T00:51:21;19.00;99.90
5130;DHT22;2583;50.946;6.954;2023-07-20T00:53:49;19.00;99.90
5130;DHT22;2583;50.946;6.954;2023-07-20T00:56:16;19.00;99.90
5130;DHT22;2583;50.946;6.954;2023-07-20T00:58:43;18.90;99.90
5130;DHT22;2583;50.946;6.954;2023-07-20T01:01:11;18.90;99.90
5130;DHT22;2583;50.946;6.954;2023-07-20T01:03:38;18.90;99.90
5130;DHT22;2583;50.946;6.954;2023-07-20T01:06:36;18.90;99.90
5130;DHT22;2583;50.946;6.954;2023-07-20T01:09:15;18.90;99.90
5130;DHT22;2583;50.946;6.954;2023-07-20T01:14:21;18.80;99.90
5130;DHT22;2583;50.946;6.954;2023-07-20T01:16:49;18.80;99.90
5130;DHT22;2583;50.946;6.954;2023-07-20T01:19:18;18.80;99.90
5130;DHT22;2583;50.946;6.954;2023-07-20T01:28:02;18.80;99.90
5130;DHT22;2583;50.946;6.954;2023-07-20T01:30:45;18.70;99.90
5130;DHT22;2583;50.946;6.954;2023-07-20T01:33:14;18.70;99.90
5130;DHT22;2583;50.946;6.954;2023-07-20T01:35:43;18.70;99.90
5130;DHT22;2583;50.946;6.954;2023-07-20T01:38:12;18.60;99.90
5130;DHT22;2583;50.946;6.954;2023-07-20T01:40:40;18.60;99.90
5130;DHT22;2583;50.946;6.954;2023-07-20T01:43:07;18.60;99.90
5130;DHT22;2583;50.946;6.954;2023-07-20T01:45:34;18.60;99.90
5130;DHT22;2583;50.946;6.954;2023-07-20T01:48:01;18.60;99.90
5130;DHT22;2583;50.946;6.954;2023-07-20T01:50:28;18.60;99.90
5130;DHT22;2583;50.946;6.954;2023-07-20T01:52:55;18.50;99.90
5130;DHT22;2583;50.946;6.954;2023-07-20T01:55:22;18.50;99.90
5130;DHT22;2583;50.946;6.954;2023-07-20T01:57:48;18.50;99.90
5130;DHT22;2583;50.946;6.954;2023-07-20T02:00:15;18.40;99.90
5130;DHT22;2583;50.946;6.954;2023-07-20T02:02:42;18.40;99.90
5130;DHT22;2583;50.946;6.954;2023-07-20T02:05:10;18.40;99.90
5130;DHT22;2583;50.946;6.954;2023-07-20T02:07:37;18.40;99.90
5130;DHT22;2583;50.946;6.954;2023-07-20T02:10:04;18.50;99.90
5130;DHT22;2583;50.946;6.954;2023-07-20T02:12:31;18.40;99.90
5130;DHT22;2583;50.946;6.954;2023-07-20T02:14:58;18.40;99.90
5130;DHT22;2583;50.946;6.954;2023-07-20T02:17:24;18.40;99.90
5130;DHT22;2583;50.946;6.954;2023-07-20T02:19:53;18.30;99.90
5130;DHT22;2583;50.946;6.954;2023-07-20T02:22:21;18.30;99.90
5130;DHT22;2583;50.946;6.954;2023-07-20T02:24:48;18.20;99.90
5130;DHT22;2583;50.946;6.954;2023-07-20T02:27:16;18.10;99.90
5130;DHT22;2583;50.946;6.954;2023-07-20T02:29:43;18.10;99.90
5130;DHT22;2583;50.946;6.954;2023-07-20T02:32:09;18.10;99.90
5130;DHT22;2583;50.946;6.954;2023-07-20T02:34:37;18.00;99.90
5130;DHT22;2583;50.946;6.954;2023-07-20T02:37:04;18.00;99.90
5130;DHT22;2583;50.946;6.954;2023-07-20T02:39:31;18.00;99.90
5130;DHT22;2583;50.946;6.954;2023-07-20T02:41:58;17.90;99.90
5130;DHT22;2583;50.946;6.954;2023-07-20T02:44:24;17.90;99.90
5130;DHT22;2583;50.946;6.954;2023-07-20T02:46:51;17.90;99.90
5130;DHT22;2583;50.946;6.954;2023-07-20T02:49:18;17.80;99.90
5130;DHT22;2583;50.946;6.954;2023-07-20T02:51:45;17.80;99.90
5130;DHT22;2583;50.946;6.954;2023-07-20T02:54:12;17.70;99.90
5130;DHT22;2583;50.946;6.954;2023-07-20T02:56:39;17.70;99.90
5130;DHT22;2583;50.946;6.954;2023-07-20T02:59:06;17.70;99.90
5130;DHT22;2583;50.946;6.954;2023-07-20T03:01:33;17.70;99.90
5130;DHT22;2583;50.946;6.954;2023-07-20T03:04:00;17.60;99.90
5130;DHT22;2583;50.946;6.954;2023-07-20T03:06:26;17.60;99.90
5130;DHT22;2583;50.946;6.954;2023-07-20T03:08:54;17.60;99.90
5130;DHT22;2583;50.946;6.954;2023-07-20T03:11:20;17.50;99.90
5130;DHT22;2583;50.946;6.954;2023-07-20T03:13:47;17.60;99.90
5130;DHT22;2583;50.946;6.954;2023-07-20T03:16:17;17.60;99.90
5130;DHT22;2583;50.946;6.954;2023-07-20T03:18:44;17.50;99.90
5130;DHT22;2583;50.946;6.954;2023-07-20T03:21:12;17.60;99.90
5130;DHT22;2583;50.946;6.954;2023-07-20T03:23:39;17.60;99.90
5130;DHT22;2583;50.946;6.954;2023-07-20T03:26:07;17.50;99.90
5130;DHT22;2583;50.946;6.954;2023-07-20T03:28:37;17.50;99.90
5130;DHT22;2583;50.946;6.954;2023-07-20T03:31:04;17.50;99.90
5130;DHT22;2583;50.946;6.954;2023-07-20T03:33:32;17.50;99.90
5130;DHT22;2583;50.946;6.954;2023-07-20T03:36:00;17.50;99.90
5130;DHT22;2583;50.946;6.954;2023-07-20T03:38:27;17.50;99.90
5130;DHT22;2583;50.946;6.954;2023-07-20T03:40:57;17.50;99.90
5130;DHT22;2583;50.946;6.954;2023-07-20T03:43:26;17.50;99.90
5130;DHT22;2583;50.946;6.954;2023-07-20T03:45:54;17.50;99.90
5130;DHT22;2583;50.946;6.954;2023-07-20T03:48:22;17.50;99.90
5130;DHT22;2583;50.946;6.954;2023-07-20T03:50:51;17.60;99.90
5130;DHT22;2583;50.946;6.954;2023-07-20T03:53:19;17.60;99.90
5130;DHT22;2583;50.946;6.954;2023-07-20T03:55:49;17.60;99.90
5130;DHT22;2583;50.946;6.954;2023-07-20T03:58:19;17.60;99.90
5130;DHT22;2583;50.946;6.954;2023-07-20T04:00:47;17.60;99.90
5130;DHT22;2583;50.946;6.954;2023-07-20T04:03:14;17.60;99.90
5130;DHT22;2583;50.946;6.954;2023-07-20T04:05:42;17.60;99.90
5130;DHT22;2583;50.946;6.954;2023-07-20T04:08:09;17.70;99.90
5130;DHT22;2583;50.946;6.954;2023-07-20T04:10:38;17.70;99.90
5130;DHT22;2583;50.946;6.954;2023-07-20T04:13:05;17.70;99.90
5130;DHT22;2583;50.946;6.954;2023-07-20T04:15:32;17.70;99.90
5130;DHT22;2583;50.946;6.954;2023-07-20T04:17:59;17.70;99.90
5130;DHT22;2583;50.946;6.954;2023-07-20T04:20:27;17.80;99.90
5130;DHT22;2583;50.946;6.954;2023-07-20T04:22:54;17.80;99.90
5130;DHT22;2583;50.946;6.954;2023-07-20T04:25:21;17.90;99.90
5130;DHT22;2583;50.946;6.954;2023-07-20T04:27:47;17.90;99.90
5130;DHT22;2583;50.946;6.954;2023-07-20T04:30:17;17.90;99.90
5130;DHT22;2583;50.946;6.954;2023-07-20T04:32:46;17.90;99.90
5130;DHT22;2583;50.946;6.954;2023-07-20T04:35:52;17.90;99.90
5130;DHT22;2583;50.946;6.954;2023-07-20T04:38:20;17.90;99.90
5130;DHT22;2583;50.946;6.954;2023-07-20T04:40:49;18.00;99.90
5130;DHT22;2583;50.946;6.954;2023-07-20T04:43:17;18.00;99.90
5130;DHT22;2583;50.946;6.954;2023-07-20T04:45:44;18.00;99.90
5130;DHT22;2583;50.946;6.954;2023-07-20T04:48:15;18.00;99.90
5130;DHT22;2583;50.946;6.954;2023-07-20T04:50:46;18.00;99.90
5130;DHT22;2583;50.946;6.954;2023-07-20T04:53:13;18.10;99.90
5130;DHT22;2583;50.946;6.954;2023-07-20T04:55:40;18.00;99.90
5130;DHT22;2583;50.946;6.954;2023-07-20T04:58:07;18.00;99.90
5130;DHT22;2583;50.946;6.954;2023-07-20T05:00:34;18.00;99.90
5130;DHT22;2583;50.946;6.954;2023-07-20T05:03:01;18.10;99.90
5130;DHT22;2583;50.946;6.954;2023-07-20T05:05:28;18.10;99.90
5130;DHT22;2583;50.946;6.954;2023-07-20T05:07:55;18.10;99.90
5130;DHT22;2583;50.946;6.954;2023-07-20T05:10:22;18.10;99.90
5130;DHT22;2583;50.946;6.954;2023-07-20T05:12:48;18.10;99.90
5130;DHT22;2583;50.946;6.954;2023-07-20T05:15:15;18.10;99.90
5130;DHT22;2583;50.946;6.954;2023-07-20T05:17:42;18.20;99.90
5130;DHT22;2583;50.946;6.954;2023-07-20T05:20:09;18.20;99.90
5130;DHT22;2583;50.946;6.954;2023-07-20T05:22:36;18.20;99.90
5130;DHT22;2583;50.946;6.954;2023-07-20T05:25:07;18.10;99.90
5130;DHT22;2583;50.946;6.954;2023-07-20T05:27:38;18.20;99.90
5130;DHT22;2583;50.946;6.954;2023-07-20T05:30:06;18.20;99.90
5130;DHT22;2583;50.946;6.954;2023-07-20T05:32:34;18.30;99.90
5130;DHT22;2583;50.946;6.954;2023-07-20T05:35:01;18.20;99.90
5130;DHT22;2583;50.946;6.954;2023-07-20T05:37:28;18.30;99.90
5130;DHT22;2583;50.946;6.954;2023-07-20T05:39:54;18.40;99.90
5130;DHT22;2583;50.946;6.954;2023-07-20T05:42:22;18.20;99.90
5130;DHT22;2583;50.946;6.954;2023-07-20T05:44:48;18.30;99.90
5130;DHT22;2583;50.946;6.954;2023-07-20T05:47:16;18.30;99.90
5130;DHT22;2583;50.946;6.954;2023-07-20T05:49:43;18.30;99.90
5130;DHT22;2583;50.946;6.954;2023-07-20T05:52:10;18.40;99.90
5130;DHT22;2583;50.946;6.954;2023-07-20T05:54:36;18.50;99.90
5130;DHT22;2583;50.946;6.954;2023-07-20T05:57:04;18.30;99.90
5130;DHT22;2583;50.946;6.954;2023-07-20T05:59:31;18.30;99.90
5130;DHT22;2583;50.946;6.954;2023-07-20T06:01:58;18.40;99.90
5130;DHT22;2583;50.946;6.954;2023-07-20T06:04:25;18.40;99.90
5130;DHT22;2583;50.946;6.954;2023-07-20T06:06:52;18.50;99.90
5130;DHT22;2583;50.946;6.954;2023-07-20T06:09:18;18.60;99.90
5130;DHT22;2583;50.946;6.954;2023-07-20T06:11:45;18.50;99.90
5130;DHT22;2583;50.946;6.954;2023-07-20T06:14:12;18.60;99.90
5130;DHT22;2583;50.946;6.954;2023-07-20T06:16:39;18.70;99.90
5130;DHT22;2583;50.946;6.954;2023-07-20T06:19:06;18.70;99.90
5130;DHT22;2583;50.946;6.954;2023-07-20T06:21:33;18.70;99.90
5130;DHT22;2583;50.946;6.954;2023-07-20T06:23:59;18.70;99.90
5130;DHT22;2583;50.946;6.954;2023-07-20T06:26:26;18.60;99.90
5130;DHT22;2583;50.946;6.954;2023-07-20T06:28:53;18.80;99.90
5130;DHT22;2583;50.946;6.954;2023-07-20T06:31:20;18.90;99.90
5130;DHT22;2583;50.946;6.954;2023-07-20T06:33:47;19.00;99.90
5130;DHT22;2583;50.946;6.954;2023-07-20T06:36:17;19.00;99.90
5130;DHT22;2583;50.946;6.954;2023-07-20T06:38:44;18.90;99.90
5130;DHT22;2583;50.946;6.954;2023-07-20T06:41:31;18.80;99.90
5130;DHT22;2583;50.946;6.954;2023-07-20T06:44:00;18.70;99.90
5130;DHT22;2583;50.946;6.954;2023-07-20T06:46:27;18.70;99.90
5130;DHT22;2583;50.946;6.954;2023-07-20T06:48:54;18.80;99.90
5130;DHT22;2583;50.946;6.954;2023-07-20T06:51:24;18.90;99.90
5130;DHT22;2583;50.946;6.954;2023-07-20T06:53:52;19.00;99.90
5130;DHT22;2583;50.946;6.954;2023-07-20T06:56:18;19.20;99.90
5130;DHT22;2583;50.946;6.954;2023-07-20T06:58:49;19.50;99.90
5130;DHT22;2583;50.946;6.954;2023-07-20T07:01:16;19.60;99.90
5130;DHT22;2583;50.946;6.954;2023-07-20T07:03:43;19.70;99.90
5130;DHT22;2583;50.946;6.954;2023-07-20T07:06:10;19.60;99.90
5130;DHT22;2583;50.946;6.954;2023-07-20T07:08:37;19.50;99.90
5130;DHT22;2583;50.946;6.954;2023-07-20T07:11:04;19.50;99.90
5130;DHT22;2583;50.946;6.954;2023-07-20T07:13:32;19.50;99.90
5130;DHT22;2583;50.946;6.954;2023-07-20T07:15:58;19.50;99.90
5130;DHT22;2583;50.946;6.954;2023-07-20T07:18:25;19.60;99.90
5130;DHT22;2583;50.946;6.954;2023-07-20T07:20:53;19.70;99.90
5130;DHT22;2583;50.946;6.954;2023-07-20T07:23:20;19.70;99.90
5130;DHT22;2583;50.946;6.954;2023-07-20T07:25:47;19.60;99.80
5130;DHT22;2583;50.946;6.954;2023-07-20T07:28:14;19.60;99.90
5130;DHT22;2583;50.946;6.954;2023-07-20T07:30:41;19.50;99.90
5130;DHT22;2583;50.946;6.954;2023-07-20T07:33:08;19.40;99.90
5130;DHT22;2583;50.946;6.954;2023-07-20T07:35:36;19.50;99.90
5130;DHT22;2583;50.946;6.954;2023-07-20T07:38:03;19.50;99.90
5130;DHT22;2583;50.946;6.954;2023-07-20T07:40:50;19.50;99.90
5130;DHT22;2583;50.946;6.954;2023-07-20T07:43:17;19.60;99.90
5130;DHT22;2583;50.946;6.954;2023-07-20T07:45:43;19.60;99.90
5130;DHT22;2583;50.946;6.954;2023-07-20T07:48:10;19.70;99.90
5130;DHT22;2583;50.946;6.954;2023-07-20T07:50:39;19.80;99.90
5130;DHT22;2583;50.946;6.954;2023-07-20T07:53:07;19.80;99.50
5130;DHT22;2583;50.946;6.954;2023-07-20T07:55:35;20.00;98.70
5130;DHT22;2583;50.946;6.954;2023-07-20T07:58:02;20.10;96.70
5130;DHT22;2583;50.946;6.954;2023-07-20T08:00:29;20.10;94.50
5130;DHT22;2583;50.946;6.954;2023-07-20T08:02:56;20.10;93.60
5130;DHT22;2583;50.946;6.954;2023-07-20T08:05:22;20.20;93.80
5130;DHT22;2583;50.946;6.954;2023-07-20T08:07:49;20.20;94.40
5130;DHT22;2583;50.946;6.954;2023-07-20T08:10:16;20.00;93.40
5130;DHT22;2583;50.946;6.954;2023-07-20T08:12:43;20.00;93.90
5130;DHT22;2583;50.946;6.954;2023-07-20T08:15:11;20.00;94.80
5130;DHT22;2583;50.946;6.954;2023-07-20T08:17:39;20.00;95.00
5130;DHT22;2583;50.946;6.954;2023-07-20T08:20:07;20.10;93.30
5130;DHT22;2583;50.946;6.954;2023-07-20T08:22:36;20.10;92.20
5130;DHT22;2583;50.946;6.954;2023-07-20T08:25:03;20.30;93.20
5130;DHT22;2583;50.946;6.954;2023-07-20T08:27:30;20.40;90.70
5130;DHT22;2583;50.946;6.954;2023-07-20T08:29:56;20.70;87.90
5130;DHT22;2583;50.946;6.954;2023-07-20T08:32:26;20.60;74.10
5130;DHT22;2583;50.946;6.954;2023-07-20T08:34:53;20.60;71.10
5130;DHT22;2583;50.946;6.954;2023-07-20T08:37:20;20.30;75.20
5130;DHT22;2583;50.946;6.954;2023-07-20T08:39:47;20.20;79.70
5130;DHT22;2583;50.946;6.954;2023-07-20T08:42:14;20.40;77.70
5130;DHT22;2583;50.946;6.954;2023-07-20T08:44:42;20.50;74.60
5130;DHT22;2583;50.946;6.954;2023-07-20T08:47:10;20.80;68.50
5130;DHT22;2583;50.946;6.954;2023-07-20T08:49:39;21.00;64.00
5130;DHT22;2583;50.946;6.954;2023-07-20T08:52:06;21.20;60.10
5130;DHT22;2583;50.946;6.954;2023-07-20T08:54:34;21.30;58.70
5130;DHT22;2583;50.946;6.954;2023-07-20T08:57:04;21.70;59.70
5130;DHT22;2583;50.946;6.954;2023-07-20T08:59:32;21.80;56.50
5130;DHT22;2583;50.946;6.954;2023-07-20T09:01:59;21.60;56.30
5130;DHT22;2583;50.946;6.954;2023-07-20T09:04:26;21.50;54.30
5130;DHT22;2583;50.946;6.954;2023-07-20T09:06:53;21.40;53.80
5130;DHT22;2583;50.946;6.954;2023-07-20T09:09:20;21.70;51.50
5130;DHT22;2583;50.946;6.954;2023-07-20T09:11:50;21.80;49.50
5130;DHT22;2583;50.946;6.954;2023-07-20T09:14:17;21.90;47.40
5130;DHT22;2583;50.946;6.954;2023-07-20T09:16:52;22.00;47.30
5130;DHT22;2583;50.946;6.954;2023-07-20T09:19:20;22.30;43.80
5130;DHT22;2583;50.946;6.954;2023-07-20T09:21:51;22.60;40.40
5130;DHT22;2583;50.946;6.954;2023-07-20T09:24:19;22.20;42.30
5130;DHT22;2583;50.946;6.954;2023-07-20T09:26:48;22.30;42.80
5130;DHT22;2583;50.946;6.954;2023-07-20T09:29:18;22.40;42.50
5130;DHT22;2583;50.946;6.954;2023-07-20T09:32:02;22.30;42.40
5130;DHT22;2583;50.946;6.954;2023-07-20T09:34:30;22.20;42.60
5130;DHT22;2583;50.946;6.954;2023-07-20T09:37:03;22.30;41.50
5130;DHT22;2583;50.946;6.954;2023-07-20T09:39:31;22.30;42.10
5130;DHT22;2583;50.946;6.954;2023-07-20T09:42:01;22.10;42.70
5130;DHT22;2583;50.946;6.954;2023-07-20T09:44:31;22.00;43.90
5130;DHT22;2583;50.946;6.954;2023-07-20T09:47:03;22.00;44.50
5130;DHT22;2583;50.946;6.954;2023-07-20T09:49:31;22.20;43.80
5130;DHT22;2583;50.946;6.954;2023-07-20T09:52:18;22.30;43.50
5130;DHT22;2583;50.946;6.954;2023-07-20T09:54:49;22.50;41.60
5130;DHT22;2583;50.946;6.954;2023-07-20T09:57:16;22.50;40.20
5130;DHT22;2583;50.946;6.954;2023-07-20T09:59:43;22.50;40.30
5130;DHT22;2583;50.946;6.954;2023-07-20T10:02:20;22.50;39.20
5130;DHT22;2583;50.946;6.954;2023-07-20T10:04:52;22.70;39.20
5130;DHT22;2583;50.946;6.954;2023-07-20T10:07:22;23.00;36.80
5130;DHT22;2583;50.946;6.954;2023-07-20T10:09:52;22.90;36.20
5130;DHT22;2583;50.946;6.954;2023-07-20T10:12:22;22.90;34.50
5130;DHT22;2583;50.946;6.954;2023-07-20T10:15:20;23.40;33.30
5130;DHT22;2583;50.946;6.954;2023-07-20T10:18:01;23.70;32.90
5130;DHT22;2583;50.946;6.954;2023-07-20T10:20:29;23.80;31.00
5130;DHT22;2583;50.946;6.954;2023-07-20T10:23:01;23.90;30.50
5130;DHT22;2583;50.946;6.954;2023-07-20T10:25:29;23.90;31.50
5130;DHT22;2583;50.946;6.954;2023-07-20T10:27:57;23.80;31.00
5130;DHT22;2583;50.946;6.954;2023-07-20T10:30:25;23.70;30.40
5130;DHT22;2583;50.946;6.954;2023-07-20T10:32:52;23.40;31.20
5130;DHT22;2583;50.946;6.954;2023-07-20T10:35:19;23.50;30.50
5130;DHT22;2583;50.946;6.954;2023-07-20T10:37:53;23.30;30.40
5130;DHT22;2583;50.946;6.954;2023-07-20T10:43:03;23.10;29.40
5130;DHT22;2583;50.946;6.954;2023-07-20T10:48:25;23.40;28.10
5130;DHT22;2583;50.946;6.954;2023-07-20T10:51:12;23.70;27.80
5130;DHT22;2583;50.946;6.954;2023-07-20T10:53:41;23.50;27.90
5130;DHT22;2583;50.946;6.954;2023-07-20T10:56:15;23.40;28.50
5130;DHT22;2583;50.946;6.954;2023-07-20T10:58:42;23.10;29.00
5130;DHT22;2583;50.946;6.954;2023-07-20T11:01:13;23.00;28.90
5130;DHT22;2583;50.946;6.954;2023-07-20T11:03:42;23.00;28.90
5130;DHT22;2583;50.946;6.954;2023-07-20T11:09:10;22.90;29.10
5130;DHT22;2583;50.946;6.954;2023-07-20T11:11:49;22.80;28.60
5130;DHT22;2583;50.946;6.954;2023-07-20T11:14:24;22.90;28.00
5130;DHT22;2583;50.946;6.954;2023-07-20T11:16:52;22.80;26.70
5130;DHT22;2583;50.946;6.954;2023-07-20T11:19:26;23.00;27.60
5130;DHT22;2583;50.946;6.954;2023-07-20T11:21:57;23.30;27.40
5130;DHT22;2583;50.946;6.954;2023-07-20T11:24:30;23.40;27.00
5130;DHT22;2583;50.946;6.954;2023-07-20T11:26:57;23.70;26.20
5130;DHT22;2583;50.946;6.954;2023-07-20T11:29:24;24.00;27.40
5130;DHT22;2583;50.946;6.954;2023-07-20T11:31:59;24.30;25.90
5130;DHT22;2583;50.946;6.954;2023-07-20T11:34:27;24.40;26.40
5130;DHT22;2583;50.946;6.954;2023-07-20T11:36:54;24.50;26.30
5130;DHT22;2583;50.946;6.954;2023-07-20T11:39:24;24.50;26.90
5130;DHT22;2583;50.946;6.954;2023-07-20T11:41:57;24.40;26.40
5130;DHT22;2583;50.946;6.954;2023-07-20T11:44:28;24.40;26.10
5130;DHT22;2583;50.946;6.954;2023-07-20T11:47:03;24.60;25.90
5130;DHT22;2583;50.946;6.954;2023-07-20T11:49:37;24.30;26.00
5130;DHT22;2583;50.946;6.954;2023-07-20T11:52:07;24.40;26.00
5130;DHT22;2583;50.946;6.954;2023-07-20T11:54:41;24.50;25.60
5130;DHT22;2583;50.946;6.954;2023-07-20T11:57:17;24.80;26.00
5130;DHT22;2583;50.946;6.954;2023-07-20T11:59:54;24.90;24.90
5130;DHT22;2583;50.946;6.954;2023-07-20T12:02:27;25.40;24.20
5130;DHT22;2583;50.946;6.954;2023-07-20T12:04:56;25.00;23.90
5130;DHT22;2583;50.946;6.954;2023-07-20T12:07:25;24.60;24.50
5130;DHT22;2583;50.946;6.954;2023-07-20T12:10:09;24.40;24.90
5130;DHT22;2583;50.946;6.954;2023-07-20T12:12:40;24.10;24.60
5130;DHT22;2583;50.946;6.954;2023-07-20T12:15:16;23.90;23.70
5130;DHT22;2583;50.946;6.954;2023-07-20T12:17:51;23.70;23.80
5130;DHT22;2583;50.946;6.954;2023-07-20T12:20:44;23.50;24.20
5130;DHT22;2583;50.946;6.954;2023-07-20T12:23:12;23.40;24.80
5130;DHT22;2583;50.946;6.954;2023-07-20T12:25:45;23.10;25.20
5130;DHT22;2583;50.946;6.954;2023-07-20T12:28:16;23.00;25.50
5130;DHT22;2583;50.946;6.954;2023-07-20T12:30:45;23.00;25.90
5130;DHT22;2583;50.946;6.954;2023-07-20T12:33:12;22.90;26.80
5130;DHT22;2583;50.946;6.954;2023-07-20T12:35:43;22.80;26.50
5130;DHT22;2583;50.946;6.954;2023-07-20T12:38:10;22.70;26.40
5130;DHT22;2583;50.946;6.954;2023-07-20T12:40:37;22.70;26.30
5130;DHT22;2583;50.946;6.954;2023-07-20T12:43:03;22.70;26.40
5130;DHT22;2583;50.946;6.954;2023-07-20T12:45:31;22.70;26.20
5130;DHT22;2583;50.946;6.954;2023-07-20T12:47:58;22.70;26.20
5130;DHT22;2583;50.946;6.954;2023-07-20T12:50:26;22.80;26.50
5130;DHT22;2583;50.946;6.954;2023-07-20T12:52:53;22.80;26.30
5130;DHT22;2583;50.946;6.954;2023-07-20T12:55:19;22.90;26.30
5130;DHT22;2583;50.946;6.954;2023-07-20T12:57:46;22.90;26.20
5130;DHT22;2583;50.946;6.954;2023-07-20T13:00:14;23.10;26.20
5130;DHT22;2583;50.946;6.954;2023-07-20T13:02:41;23.30;25.90
5130;DHT22;2583;50.946;6.954;2023-07-20T13:05:09;23.60;26.10
5130;DHT22;2583;50.946;6.954;2023-07-20T13:07:37;23.60;24.80
5130;DHT22;2583;50.946;6.954;2023-07-20T13:10:08;23.50;25.00
5130;DHT22;2583;50.946;6.954;2023-07-20T13:12:37;23.70;25.10
5130;DHT22;2583;50.946;6.954;2023-07-20T13:15:06;23.80;24.50
5130;DHT22;2583;50.946;6.954;2023-07-20T13:17:37;23.90;24.20
5130;DHT22;2583;50.946;6.954;2023-07-20T13:20:07;23.90;24.20
5130;DHT22;2583;50.946;6.954;2023-07-20T13:22:40;23.90;24.50
5130;DHT22;2583;50.946;6.954;2023-07-20T13:25:07;24.10;24.30
5130;DHT22;2583;50.946;6.954;2023-07-20T13:27:35;24.30;24.00
5130;DHT22;2583;50.946;6.954;2023-07-20T13:30:05;24.40;23.60
5130;DHT22;2583;50.946;6.954;2023-07-20T13:32:36;24.70;23.30
5130;DHT22;2583;50.946;6.954;2023-07-20T13:35:03;24.60;23.60
5130;DHT22;2583;50.946;6.954;2023-07-20T13:37:30;24.60;22.90
5130;DHT22;2583;50.946;6.954;2023-07-20T13:39:57;24.60;22.60
5130;DHT22;2583;50.946;6.954;2023-07-20T13:42:24;24.40;22.00
5130;DHT22;2583;50.946;6.954;2023-07-20T13:44:50;24.40;21.50
5130;DHT22;2583;50.946;6.954;2023-07-20T13:47:17;24.30;21.50
5130;DHT22;2583;50.946;6.954;2023-07-20T13:49:47;24.10;21.60
5130;DHT22;2583;50.946;6.954;2023-07-20T13:52:14;24.10;21.60
5130;DHT22;2583;50.946;6.954;2023-07-20T13:54:46;24.20;21.50
5130;DHT22;2583;50.946;6.954;2023-07-20T13:57:16;24.30;22.20
5130;DHT22;2583;50.946;6.954;2023-07-20T13:59:44;24.50;23.00
5130;DHT22;2583;50.946;6.954;2023-07-20T14:02:13;24.50;22.40
5130;DHT22;2583;50.946;6.954;2023-07-20T14:04:43;25.90;22.30
5130;DHT22;2583;50.946;6.954;2023-07-20T14:07:10;27.30;19.70
5130;DHT22;2583;50.946;6.954;2023-07-20T14:09:38;28.30;18.30
5130;DHT22;2583;50.946;6.954;2023-07-20T14:12:24;29.00;17.60
5130;DHT22;2583;50.946;6.954;2023-07-20T14:14:51;29.60;15.20
5130;DHT22;2583;50.946;6.954;2023-07-20T14:17:18;29.60;14.40
5130;DHT22;2583;50.946;6.954;2023-07-20T14:19:45;30.30;14.10
5130;DHT22;2583;50.946;6.954;2023-07-20T14:22:12;30.10;13.50
5130;DHT22;2583;50.946;6.954;2023-07-20T14:24:39;29.70;13.70
5130;DHT22;2583;50.946;6.954;2023-07-20T14:27:06;29.20;14.00
5130;DHT22;2583;50.946;6.954;2023-07-20T14:29:34;28.20;14.30
5130;DHT22;2583;50.946;6.954;2023-07-20T14:32:03;27.50;15.10
5130;DHT22;2583;50.946;6.954;2023-07-20T14:34:37;27.30;15.90
5130;DHT22;2583;50.946;6.954;2023-07-20T14:37:05;27.30;15.30
5130;DHT22;2583;50.946;6.954;2023-07-20T14:39:32;27.20;15.20
5130;DHT22;2583;50.946;6.954;2023-07-20T14:42:01;26.90;15.50
5130;DHT22;2583;50.946;6.954;2023-07-20T14:44:30;26.80;15.80
5130;DHT22;2583;50.946;6.954;2023-07-20T14:46:57;26.50;15.80
5130;DHT22;2583;50.946;6.954;2023-07-20T14:49:40;26.10;16.30
5130;DHT22;2583;50.946;6.954;2023-07-20T14:52:31;26.00;16.60
5130;DHT22;2583;50.946;6.954;2023-07-20T14:54:58;26.00;16.10
5130;DHT22;2583;50.946;6.954;2023-07-20T14:57:25;25.90;16.80
5130;DHT22;2583;50.946;6.954;2023-07-20T14:59:52;26.00;17.00
5130;DHT22;2583;50.946;6.954;2023-07-20T15:02:19;26.00;17.20
5130;DHT22;2583;50.946;6.954;2023-07-20T15:04:47;25.80;17.50
5130;DHT22;2583;50.946;6.954;2023-07-20T15:07:14;25.30;18.10
5130;DHT22;2583;50.946;6.954;2023-07-20T15:09:41;25.30;18.40
5130;DHT22;2583;50.946;6.954;2023-07-20T15:12:11;25.30;18.70
5130;DHT22;2583;50.946;6.954;2023-07-20T15:14:40;25.40;18.10
5130;DHT22;2583;50.946;6.954;2023-07-20T15:17:08;25.30;18.20
5130;DHT22;2583;50.946;6.954;2023-07-20T15:19:35;25.40;18.10
5130;DHT22;2583;50.946;6.954;2023-07-20T15:22:03;25.40;18.90
5130;DHT22;2583;50.946;6.954;2023-07-20T15:24:30;25.20;18.50
5130;DHT22;2583;50.946;6.954;2023-07-20T15:26:57;25.30;19.10
5130;DHT22;2583;50.946;6.954;2023-07-20T15:29:24;25.30;18.50
5130;DHT22;2583;50.946;6.954;2023-07-20T15:31:53;25.40;18.50
5130;DHT22;2583;50.946;6.954;2023-07-20T15:34:23;25.30;18.40
5130;DHT22;2583;50.946;6.954;2023-07-20T15:36:50;25.30;18.20
5130;DHT22;2583;50.946;6.954;2023-07-20T15:39:17;25.30;18.90
5130;DHT22;2583;50.946;6.954;2023-07-20T15:41:43;25.30;19.20
5130;DHT22;2583;50.946;6.954;2023-07-20T15:44:12;25.30;19.40
5130;DHT22;2583;50.946;6.954;2023-07-20T15:49:09;25.30;19.50
5130;DHT22;2583;50.946;6.954;2023-07-20T15:51:36;25.20;19.50
5130;DHT22;2583;50.946;6.954;2023-07-20T15:54:05;25.00;19.80
5130;DHT22;2583;50.946;6.954;2023-07-20T15:56:36;25.00;19.90
5130;DHT22;2583;50.946;6.954;2023-07-20T15:59:03;25.00;19.80
5130;DHT22;2583;50.946;6.954;2023-07-20T16:01:30;25.00;19.90
5130;DHT22;2583;50.946;6.954;2023-07-20T16:04:01;24.90;20.10
5130;DHT22;2583;50.946;6.954;2023-07-20T16:06:28;24.70;20.00
5130;DHT22;2583;50.946;6.954;2023-07-20T16:08:55;24.70;20.30
5130;DHT22;2583;50.946;6.954;2023-07-20T16:11:22;24.70;20.50
5130;DHT22;2583;50.946;6.954;2023-07-20T16:13:53;24.70;19.90
5130;DHT22;2583;50.946;6.954;2023-07-20T16:16:20;24.40;19.50
5130;DHT22;2583;50.946;6.954;2023-07-20T16:18:48;24.40;20.10
5130;DHT22;2583;50.946;6.954;2023-07-20T16:21:16;24.50;20.40
5130;DHT22;2583;50.946;6.954;2023-07-20T16:23:44;24.60;20.80
5130;DHT22;2583;50.946;6.954;2023-07-20T16:26:10;24.60;20.10
5130;DHT22;2583;50.946;6.954;2023-07-20T16:28:37;24.70;20.20
5130;DHT22;2583;50.946;6.954;2023-07-20T16:31:14;24.70;19.80
5130;DHT22;2583;50.946;6.954;2023-07-20T16:33:43;24.70;19.70